Route Details

Aircraft Information
Group: European Fleet
Types: A30F, A31F, B738
Route Data
Distance: 522nm
Duration: 1h 25m
Origin METAR: EPWA 160030Z 12002KT CAVOK 21/19 Q1009 NOSIG
Dest. METAR: EDDK 160020Z AUTO 14006KT CAVOK 18/14 Q1007 NOSIG
Freight Data
(for Aug 16, 2022)
Load Factor:
44%
Manifested Cargo: 24,325lbs
Financial History
Total Freight: 104,646lbs
Average Load: 0lbs/flt
Fuel Used: 44,795lbs
Avg. Fuel Used: 0lbs/flt
Fuel Expense: $26,835
Avg. Fuel Expense: $0
Avg. Fuel Cost: $0/lbs
Total Gross Income: $426,940
Pilot Pay: $528
Total Expenses: $71,199
Total Revenue: $327,776
Average Revenue: $0

Capitol Logistics 518




EPWA
Warsaw Chopin Airport
Warsaw, PL
EDDK
Cologne Bonn Airport
Cologne, DE